Time,TemperatureF,DewpointF,PressureIn,WindDirection,WindDirectionDegrees,WindSpeedMPH,WindSpeedGustMPH,Humidity,HourlyPrecipIn,Conditions,Clouds,dailyrainin,SoftwareType,DateUTC
2013-05-25 00:05:00,67.6,67.1,30.05,NE,45,1.6,-999.0,98,-99.99,,,0.00,Acu-Link.com,2013-05-25 05:05:00,
2013-05-25 00:21:00,67.5,66.9,30.06,WSW,247,0.0,-999.0,98,-99.99,,,0.00,Acu-Link.com,2013-05-25 05:21:00,
2013-05-25 00:36:00,67.5,66.9,30.06,SSW,202,1.1,-999.0,98,-99.99,,,0.00,Acu-Link.com,2013-05-25 05:36:00,
2013-05-25 00:51:00,67.5,66.9,30.06,SW,225,2.2,-999.0,98,-99.99,,,0.00,Acu-Link.com,2013-05-25 05:51:00,
2013-05-25 01:06:00,67.5,66.9,30.06,ESE,112,0.0,-999.0,98,-99.99,,,0.00,Acu-Link.com,2013-05-25 06:06:00,
2013-05-25 01:21:00,67.5,66.9,30.06,SSW,202,2.2,-999.0,98,-99.99,,,0.00,Acu-Link.com,2013-05-25 06:21:00,
2013-05-25 01:37:00,67.5,66.9,30.05,South,180,0.0,-999.0,98,-99.99,,,0.00,Acu-Link.com,2013-05-25 06:37:00,
2013-05-25 01:52:00,67.5,66.9,30.05,NNW,337,1.1,-999.0,98,-99.99,,,0.00,Acu-Link.com,2013-05-25 06:52:00,
2013-05-25 02:07:00,67.6,67.1,30.05,South,180,0.0,-999.0,98,-99.99,,,0.00,Acu-Link.com,2013-05-25 07:07:00,
2013-05-25 02:22:00,67.6,67.1,30.04,South,180,0.0,-999.0,98,-99.99,,,0.00,Acu-Link.com,2013-05-25 07:22:00,
2013-05-25 02:37:00,67.6,67.1,30.04,ESE,112,0.0,-999.0,98,-99.99,,,0.00,Acu-Link.com,2013-05-25 07:37:00,
2013-05-25 02:53:00,67.6,67.1,30.04,SSE,157,1.1,-999.0,98,-99.99,,,0.00,Acu-Link.com,2013-05-25 07:53:00,
2013-05-25 03:08:00,67.5,66.9,30.04,SSE,157,0.0,-999.0,98,-99.99,,,0.00,Acu-Link.com,2013-05-25 08:08:00,
2013-05-25 03:23:00,67.5,66.9,30.05,ESE,112,0.0,-999.0,98,-99.99,,,0.00,Acu-Link.com,2013-05-25 08:23:00,
2013-05-25 03:38:00,67.5,66.9,30.05,NNW,337,0.0,-999.0,98,-99.99,,,0.00,Acu-Link.com,2013-05-25 08:38:00,
2013-05-25 03:54:00,67.6,67.1,30.04,NW,315,0.0,-999.0,98,-99.99,,,0.00,Acu-Link.com,2013-05-25 08:54:00,
2013-05-25 04:09:00,67.6,67.1,30.04,WNW,292,0.0,-999.0,98,-99.99,,,0.00,Acu-Link.com,2013-05-25 09:09:00,
2013-05-25 04:25:00,67.6,67.1,30.04,South,180,0.0,-999.0,98,-99.99,,,0.00,Acu-Link.com,2013-05-25 09:25:00,
2013-05-25 04:40:00,67.6,67.1,30.02,SE,135,0.0,-999.0,98,-99.99,,,0.00,Acu-Link.com,2013-05-25 09:40:00,
2013-05-25 04:55:00,67.8,67.2,30.01,South,180,1.1,-999.0,98,-99.99,,,0.00,Acu-Link.com,2013-05-25 09:55:00,
2013-05-25 05:10:00,67.8,67.2,30.01,South,180,0.0,-999.0,98,-99.99,,,0.00,Acu-Link.com,2013-05-25 10:10:00,
2013-05-25 05:26:00,68.0,67.4,30.01,South,180,0.0,-999.0,98,-99.99,,,0.00,Acu-Link.com,2013-05-25 10:26:00,
2013-05-25 05:41:00,68.2,67.6,30.02,ESE,112,0.0,-999.0,98,-99.99,,,0.00,Acu-Link.com,2013-05-25 10:41:00,
2013-05-25 05:56:00,68.5,68.0,30.01,West,270,0.0,-999.0,98,-99.99,,,0.00,Acu-Link.com,2013-05-25 10:56:00,
2013-05-25 06:11:00,68.5,68.0,30.02,South,180,0.0,-999.0,98,-99.99,,,0.00,Acu-Link.com,2013-05-25 11:11:00,
2013-05-25 06:27:00,68.9,68.3,30.03,South,180,0.0,-999.0,98,-99.99,,,0.00,Acu-Link.com,2013-05-25 11:27:00,
2013-05-25 06:42:00,69.3,68.7,30.04,SE,135,0.0,-999.0,98,-99.99,,,0.00,Acu-Link.com,2013-05-25 11:42:00,
2013-05-25 06:57:00,69.6,69.0,30.04,SSE,157,1.6,-999.0,98,-99.99,,,0.00,Acu-Link.com,2013-05-25 11:57:00,
2013-05-25 07:12:00,69.6,69.0,30.04,ESE,112,2.2,-999.0,98,-99.99,,,0.00,Acu-Link.com,2013-05-25 12:12:00,
2013-05-25 07:27:00,69.8,69.2,30.03,South,180,0.0,-999.0,98,-99.99,,,0.01,Acu-Link.com,2013-05-25 12:27:00,
2013-05-25 07:43:00,69.6,69.0,30.04,South,180,0.0,-999.0,98,-99.99,,,0.01,Acu-Link.com,2013-05-25 12:43:00,
2013-05-25 07:58:00,69.8,69.2,30.04,South,180,1.1,-999.0,98,-99.99,,,0.01,Acu-Link.com,2013-05-25 12:58:00,
2013-05-25 08:13:00,70.2,69.6,30.04,SSE,157,0.0,-999.0,98,-99.99,,,0.01,Acu-Link.com,2013-05-25 13:13:00,
2013-05-25 08:28:00,70.5,69.9,30.06,SE,135,0.0,-999.0,98,-99.99,,,0.01,Acu-Link.com,2013-05-25 13:28:00,
2013-05-25 08:43:00,70.7,70.1,30.06,WSW,247,1.1,-999.0,98,-99.99,,,0.01,Acu-Link.com,2013-05-25 13:43:00,
2013-05-25 08:59:00,71.2,70.6,30.06,ESE,112,2.2,-999.0,98,-99.99,,,0.01,Acu-Link.com,2013-05-25 13:59:00,
2013-05-25 09:14:00,71.8,71.2,30.06,SSE,157,1.6,-999.0,98,-99.99,,,0.01,Acu-Link.com,2013-05-25 14:14:00,
2013-05-25 09:29:00,71.2,70.6,30.06,South,180,2.2,-999.0,98,-99.99,,,0.04,Acu-Link.com,2013-05-25 14:29:00,
2013-05-25 09:44:00,72.3,71.7,30.05,SSE,157,0.0,-999.0,98,-99.99,,,0.04,Acu-Link.com,2013-05-25 14:44:00,
2013-05-25 09:59:00,71.1,70.5,30.06,SW,225,2.7,-999.0,98,-99.99,,,0.05,Acu-Link.com,2013-05-25 14:59:00,
2013-05-25 10:15:00,71.1,70.5,30.06,SE,135,3.1,-999.0,98,-99.99,,,0.07,Acu-Link.com,2013-05-25 15:15:00,
2013-05-25 10:30:00,71.2,70.6,30.06,South,180,1.6,-999.0,98,-99.99,,,0.14,Acu-Link.com,2013-05-25 15:30:00,
2013-05-25 10:45:00,71.2,70.6,30.05,WSW,247,3.8,-999.0,98,-99.99,,,0.16,Acu-Link.com,2013-05-25 15:45:00,
2013-05-25 11:00:00,72.0,71.4,30.06,SE,135,2.2,-999.0,98,-99.99,,,0.17,Acu-Link.com,2013-05-25 16:00:00,
2013-05-25 11:16:00,72.1,71.5,30.06,SSE,157,2.7,-999.0,98,-99.99,,,0.17,Acu-Link.com,2013-05-25 16:16:00,
2013-05-25 11:31:00,70.7,70.1,30.06,SSE,157,4.7,-999.0,98,-99.99,,,0.17,Acu-Link.com,2013-05-25 16:31:00,
2013-05-25 11:46:00,70.9,70.3,30.07,ESE,112,3.1,-999.0,98,-99.99,,,0.17,Acu-Link.com,2013-05-25 16:46:00,
2013-05-25 12:01:00,71.2,70.6,30.07,SSW,202,3.8,-999.0,98,-99.99,,,0.17,Acu-Link.com,2013-05-25 17:01:00,
2013-05-25 12:16:00,71.8,71.2,30.07,South,180,3.8,-999.0,98,-99.99,,,0.17,Acu-Link.com,2013-05-25 17:16:00,
2013-05-25 12:32:00,71.8,71.2,30.07,ESE,112,2.7,-999.0,98,-99.99,,,0.17,Acu-Link.com,2013-05-25 17:32:00,
2013-05-25 12:47:00,76.1,75.5,30.07,South,180,3.1,-999.0,98,-99.99,,,0.17,Acu-Link.com,2013-05-25 17:47:00,
2013-05-25 13:02:00,76.8,76.2,30.05,ESE,112,6.7,-999.0,98,-99.99,,,0.17,Acu-Link.com,2013-05-25 18:02:00,
2013-05-25 13:17:00,77.2,76.6,30.05,South,180,3.1,-999.0,98,-99.99,,,0.17,Acu-Link.com,2013-05-25 18:17:00,
2013-05-25 13:32:00,78.3,77.6,30.04,East,90,6.3,-999.0,98,-99.99,,,0.17,Acu-Link.com,2013-05-25 18:32:00,
2013-05-25 13:48:00,78.8,78.2,30.04,WSW,247,5.1,-999.0,98,-99.99,,,0.17,Acu-Link.com,2013-05-25 18:48:00,
2013-05-25 14:03:00,81.0,80.3,30.04,SSE,157,8.9,-999.0,98,-99.99,,,0.17,Acu-Link.com,2013-05-25 19:03:00,
2013-05-25 14:18:00,77.9,77.3,30.04,SSE,157,4.7,-999.0,98,-99.99,,,0.17,Acu-Link.com,2013-05-25 19:18:00,
2013-05-25 14:33:00,81.0,80.3,30.03,South,180,6.3,-999.0,98,-99.99,,,0.17,Acu-Link.com,2013-05-25 19:33:00,
2013-05-25 14:49:00,80.6,80.0,30.03,SSE,157,7.8,-999.0,98,-99.99,,,0.17,Acu-Link.com,2013-05-25 19:49:00,
2013-05-25 15:04:00,80.8,80.2,30.02,South,180,9.4,-999.0,98,-99.99,,,0.17,Acu-Link.com,2013-05-25 20:04:00,
2013-05-25 15:19:00,81.1,80.5,30.01,SW,225,8.9,-999.0,98,-99.99,,,0.17,Acu-Link.com,2013-05-25 20:19:00,
2013-05-25 15:34:00,79.7,79.1,30.01,ESE,112,4.7,-999.0,98,-99.99,,,0.17,Acu-Link.com,2013-05-25 20:34:00,
2013-05-25 15:49:00,82.2,81.6,30.00,SSW,202,3.8,-999.0,98,-99.99,,,0.17,Acu-Link.com,2013-05-25 20:49:00,
2013-05-25 16:05:00,82.4,81.8,29.99,South,180,7.8,-999.0,98,-99.99,,,0.17,Acu-Link.com,2013-05-25 21:05:00,
2013-05-25 16:20:00,83.7,83.0,29.99,SSW,202,6.7,-999.0,98,-99.99,,,0.17,Acu-Link.com,2013-05-25 21:20:00,
2013-05-25 16:35:00,80.2,79.6,29.98,SE,135,7.4,-999.0,98,-99.99,,,0.17,Acu-Link.com,2013-05-25 21:35:00,
2013-05-25 16:50:00,80.2,79.6,29.97,ESE,112,3.8,-999.0,98,-99.99,,,0.17,Acu-Link.com,2013-05-25 21:50:00,
2013-05-25 17:05:00,83.1,82.5,29.97,SE,135,3.1,-999.0,98,-99.99,,,0.17,Acu-Link.com,2013-05-25 22:05:00,
2013-05-25 17:21:00,82.9,82.3,29.96,NE,45,3.8,-999.0,98,-99.99,,,0.17,Acu-Link.com,2013-05-25 22:21:00,
2013-05-25 17:36:00,83.3,82.7,29.96,South,180,7.4,-999.0,98,-99.99,,,0.17,Acu-Link.com,2013-05-25 22:36:00,
2013-05-25 17:51:00,82.4,81.8,29.95,ESE,112,4.3,-999.0,98,-99.99,,,0.17,Acu-Link.com,2013-05-25 22:51:00,
2013-05-25 18:06:00,81.7,81.1,29.95,SSE,157,9.4,-999.0,98,-99.99,,,0.17,Acu-Link.com,2013-05-25 23:06:00,
2013-05-25 18:21:00,81.0,80.3,29.95,SSE,157,2.7,-999.0,98,-99.99,,,0.17,Acu-Link.com,2013-05-25 23:21:00,
2013-05-25 18:37:00,81.0,80.3,29.95,SSW,202,5.1,-999.0,98,-99.99,,,0.17,Acu-Link.com,2013-05-25 23:37:00,
2013-05-25 18:52:00,80.2,79.6,29.95,ESE,112,3.8,-999.0,98,-99.99,,,0.17,Acu-Link.com,2013-05-25 23:52:00,
2013-05-25 19:07:00,80.4,79.8,29.95,WSW,247,3.8,-999.0,98,-99.99,,,0.17,Acu-Link.com,2013-05-26 00:07:00,
2013-05-25 19:22:00,79.9,79.3,29.94,SE,135,2.2,-999.0,98,-99.99,,,0.17,Acu-Link.com,2013-05-26 00:22:00,
2013-05-25 19:38:00,79.5,78.9,29.94,ESE,112,2.7,-999.0,98,-99.99,,,0.17,Acu-Link.com,2013-05-26 00:38:00,
2013-05-25 19:53:00,79.2,78.5,29.93,ESE,112,4.7,-999.0,98,-99.99,,,0.17,Acu-Link.com,2013-05-26 00:53:00,
2013-05-25 20:08:00,78.3,77.6,29.93,East,90,2.2,-999.0,98,-99.99,,,0.17,Acu-Link.com,2013-05-26 01:08:00,
2013-05-25 20:23:00,77.4,76.7,29.93,SSE,157,2.7,-999.0,98,-99.99,,,0.17,Acu-Link.com,2013-05-26 01:23:00,
2013-05-25 20:38:00,76.6,76.0,29.93,SSE,157,2.2,-999.0,98,-99.99,,,0.17,Acu-Link.com,2013-05-26 01:38:00,
2013-05-25 20:54:00,75.9,75.3,29.94,ESE,112,4.7,-999.0,98,-99.99,,,0.17,Acu-Link.com,2013-05-26 01:54:00,
2013-05-25 21:09:00,74.8,74.2,29.95,South,180,3.1,-999.0,98,-99.99,,,0.17,Acu-Link.com,2013-05-26 02:09:00,
2013-05-25 21:24:00,74.7,74.1,29.96,SSE,157,4.7,-999.0,98,-99.99,,,0.17,Acu-Link.com,2013-05-26 02:24:00,
2013-05-25 21:39:00,74.3,73.7,29.97,ESE,112,4.7,-999.0,98,-99.99,,,0.17,Acu-Link.com,2013-05-26 02:39:00,
2013-05-25 21:54:00,73.9,73.3,29.98,South,180,1.6,-999.0,98,-99.99,,,0.17,Acu-Link.com,2013-05-26 02:54:00,
2013-05-25 22:10:00,73.0,72.4,29.99,SSE,157,2.2,-999.0,98,-99.99,,,0.17,Acu-Link.com,2013-05-26 03:10:00,
2013-05-25 22:25:00,72.7,72.1,29.98,ESE,112,2.7,-999.0,98,-99.99,,,0.17,Acu-Link.com,2013-05-26 03:25:00,
2013-05-25 22:40:00,72.1,71.5,29.99,SSE,157,2.7,-999.0,98,-99.99,,,0.17,Acu-Link.com,2013-05-26 03:40:00,
2013-05-25 22:55:00,71.6,71.0,29.99,ESE,112,2.2,-999.0,98,-99.99,,,0.17,Acu-Link.com,2013-05-26 03:55:00,
2013-05-25 23:10:00,71.2,70.6,30.00,SE,135,1.6,-999.0,98,-99.99,,,0.17,Acu-Link.com,2013-05-26 04:10:00,
2013-05-25 23:26:00,71.1,70.5,30.00,SE,135,1.6,-999.0,98,-99.99,,,0.17,Acu-Link.com,2013-05-26 04:26:00,
2013-05-25 23:41:00,70.9,70.3,30.01,SSE,157,1.6,-999.0,98,-99.99,,,0.17,Acu-Link.com,2013-05-26 04:41:00,
2013-05-25 23:56:00,70.5,69.9,30.00,South,180,1.6,-999.0,98,-99.99,,,0.17,Acu-Link.com,2013-05-26 04:56:00,